createdAt,value
2022-07-29T00:00:09.412Z,22.91
2022-07-29T00:02:38.617Z,22.82
2022-07-29T00:05:08.317Z,23.22
2022-07-29T00:07:37.595Z,23.10
2022-07-29T00:10:07.076Z,23.19
2022-07-29T00:12:36.878Z,23.19
2022-07-29T00:15:09.328Z,23.19
2022-07-29T00:17:38.395Z,23.09
2022-07-29T00:20:08.772Z,22.63
2022-07-29T00:22:39.805Z,22.77
2022-07-29T00:25:09.815Z,22.98
2022-07-29T00:27:39.236Z,23.07
2022-07-29T00:30:10.731Z,23.03
2022-07-29T00:32:39.735Z,23.07
2022-07-29T00:38:03.917Z,23.07
2022-07-29T00:40:33.111Z,22.96
2022-07-29T00:43:02.906Z,22.99
2022-07-29T00:45:32.234Z,23.15
2022-07-29T00:48:01.199Z,23.01
2022-07-29T00:50:30.575Z,23.04
2022-07-29T00:52:59.997Z,22.88
2022-07-29T00:55:31.644Z,22.79
2022-07-29T00:58:01.495Z,22.63
2022-07-29T01:00:32.029Z,22.57
2022-07-29T01:03:01.094Z,22.53
2022-07-29T01:05:50.682Z,22.29
2022-07-29T01:08:22.411Z,21.82
2022-07-29T01:10:54.735Z,21.92
2022-07-29T01:13:24.463Z,22.02
2022-07-29T01:16:01.410Z,22.32
2022-07-29T01:18:34.238Z,22.36
2022-07-29T01:21:27.319Z,22.49
2022-07-29T01:24:24.744Z,22.54
2022-07-29T01:27:01.312Z,22.56
2022-07-29T01:29:40.316Z,22.44
2022-07-29T01:32:27.903Z,22.37
2022-07-29T01:35:04.275Z,21.98
2022-07-29T01:37:41.595Z,22.08
2022-07-29T01:40:16.619Z,21.85
2022-07-29T01:42:47.260Z,21.80
2022-07-29T01:45:21.793Z,21.99
2022-07-29T01:47:58.959Z,21.99
2022-07-29T01:50:35.271Z,22.07
2022-07-29T01:53:07.272Z,22.02
2022-07-29T01:55:40.793Z,22.05
2022-07-29T01:58:11.120Z,22.06
2022-07-29T02:00:43.873Z,21.93
2022-07-29T02:03:15.956Z,21.98
2022-07-29T02:05:49.082Z,21.94
2022-07-29T02:08:20.862Z,21.75
2022-07-29T02:10:52.156Z,21.92
2022-07-29T02:13:24.658Z,22.18
2022-07-29T02:15:56.114Z,22.15
2022-07-29T02:18:27.806Z,22.11
2022-07-29T02:20:58.739Z,22.07
2022-07-29T02:23:29.019Z,21.54
2022-07-29T02:26:00.079Z,21.15
2022-07-29T02:28:30.671Z,20.75
2022-07-29T02:31:04.479Z,20.85
2022-07-29T02:33:34.991Z,21.13
2022-07-29T02:36:05.076Z,21.33
2022-07-29T02:38:58.488Z,21.31
2022-07-29T02:41:31.118Z,21.32
2022-07-29T02:44:06.421Z,21.27
2022-07-29T02:46:38.951Z,21.28
2022-07-29T02:49:14.869Z,21.30
2022-07-29T02:51:47.512Z,21.41
2022-07-29T02:54:24.939Z,21.50
2022-07-29T02:56:56.630Z,21.37
2022-07-29T02:59:29.774Z,21.19
2022-07-29T03:02:01.333Z,21.09
2022-07-29T03:04:33.037Z,21.08
2022-07-29T03:07:04.057Z,21.19
2022-07-29T03:09:33.999Z,21.14
2022-07-29T03:12:03.803Z,20.92
2022-07-29T03:14:33.626Z,21.13
2022-07-29T03:17:05.407Z,21.05
2022-07-29T03:19:35.323Z,21.11
2022-07-29T03:22:04.791Z,21.26
2022-07-29T03:24:35.069Z,21.06
2022-07-29T03:27:05.246Z,21.25
2022-07-29T03:29:34.861Z,21.22
2022-07-29T03:32:08.877Z,21.31
2022-07-29T03:34:39.553Z,21.49
2022-07-29T03:37:09.153Z,21.40
2022-07-29T03:39:42.792Z,21.52
2022-07-29T03:42:15.930Z,21.53
2022-07-29T03:44:48.069Z,21.62
2022-07-29T03:47:21.484Z,21.54
2022-07-29T03:49:54.782Z,21.51
2022-07-29T03:52:24.114Z,21.40
2022-07-29T03:54:53.296Z,21.58
2022-07-29T03:57:26.099Z,21.54
2022-07-29T03:59:56.096Z,21.33
2022-07-29T04:02:30.724Z,21.27
2022-07-29T04:05:00.331Z,21.47
2022-07-29T04:07:30.174Z,21.65
2022-07-29T04:09:59.277Z,21.68
2022-07-29T04:12:28.245Z,21.80
2022-07-29T04:14:57.222Z,21.72
2022-07-29T04:17:27.550Z,21.64
2022-07-29T04:19:56.561Z,21.78
2022-07-29T04:22:25.555Z,21.85
2022-07-29T04:24:59.098Z,21.65
2022-07-29T04:27:32.494Z,21.36
2022-07-29T04:30:01.631Z,21.41
2022-07-29T04:32:32.319Z,21.49
2022-07-29T04:35:01.440Z,21.48
2022-07-29T04:37:30.371Z,21.09
2022-07-29T04:39:59.360Z,21.16
2022-07-29T04:42:29.271Z,21.37
2022-07-29T04:44:58.579Z,21.50
2022-07-29T04:47:31.804Z,21.00
2022-07-29T04:50:00.871Z,21.46
2022-07-29T04:52:29.799Z,21.83
2022-07-29T04:54:58.754Z,22.02
2022-07-29T04:57:27.757Z,22.33
2022-07-29T04:59:56.698Z,22.16
2022-07-29T05:02:25.710Z,22.30
2022-07-29T05:04:56.073Z,22.61
2022-07-29T05:07:25.038Z,22.72
2022-07-29T05:09:54.243Z,22.69
2022-07-29T05:12:23.301Z,22.62
2022-07-29T05:14:52.250Z,22.63
2022-07-29T05:17:21.313Z,22.56
2022-07-29T05:19:52.276Z,22.61
2022-07-29T05:22:23.386Z,22.79
2022-07-29T05:24:52.361Z,22.85
2022-07-29T05:27:21.270Z,23.02
2022-07-29T05:29:50.291Z,22.92
2022-07-29T05:32:19.230Z,23.12
2022-07-29T05:34:51.024Z,23.73
2022-07-29T05:37:22.740Z,23.54
2022-07-29T05:39:56.532Z,23.91
2022-07-29T05:42:26.557Z,24.42
2022-07-29T05:44:55.684Z,24.63
2022-07-29T05:47:25.311Z,25.15
2022-07-29T05:49:55.066Z,25.12
2022-07-29T05:52:25.750Z,24.21
2022-07-29T05:54:54.735Z,24.25
2022-07-29T05:57:25.267Z,23.72
2022-07-29T05:59:54.295Z,24.19
2022-07-29T06:02:23.321Z,23.72
2022-07-29T06:04:52.375Z,24.32
2022-07-29T06:07:21.336Z,24.30
2022-07-29T06:09:51.766Z,24.18
2022-07-29T06:12:21.003Z,24.72
2022-07-29T06:14:53.980Z,25.39
2022-07-29T06:17:23.363Z,25.90
2022-07-29T06:19:52.446Z,26.16
2022-07-29T06:22:21.507Z,26.82
2022-07-29T06:24:52.160Z,26.94
2022-07-29T06:27:21.106Z,27.43
2022-07-29T06:29:50.094Z,26.79
2022-07-29T06:32:20.170Z,26.20
2022-07-29T06:34:52.370Z,26.45
2022-07-29T06:37:21.715Z,26.65
2022-07-29T06:40:13.293Z,27.05
2022-07-29T06:42:44.739Z,26.09
2022-07-29T06:45:14.234Z,25.95
2022-07-29T06:47:43.153Z,26.61
2022-07-29T06:50:13.507Z,27.22
2022-07-29T06:52:42.986Z,27.82
2022-07-29T06:55:13.454Z,27.60
2022-07-29T06:57:54.476Z,27.57
2022-07-29T07:00:23.566Z,27.83
2022-07-29T07:02:52.641Z,27.11
2022-07-29T07:05:21.740Z,27.48
2022-07-29T07:07:50.707Z,27.94
2022-07-29T07:10:21.253Z,28.66
2022-07-29T07:12:50.481Z,28.94
2022-07-29T07:15:22.838Z,29.66
2022-07-29T07:18:08.334Z,28.90
2022-07-29T07:20:38.518Z,29.02
2022-07-29T07:23:07.549Z,28.99
2022-07-29T07:25:37.962Z,28.75
2022-07-29T07:28:08.217Z,28.99
2022-07-29T07:30:37.418Z,29.37
2022-07-29T07:33:06.814Z,28.91
2022-07-29T07:35:35.947Z,28.56
2022-07-29T07:38:06.941Z,28.42
2022-07-29T07:40:37.329Z,28.58
2022-07-29T07:43:06.483Z,29.10
2022-07-29T07:45:35.482Z,29.58
2022-07-29T07:48:04.592Z,29.55
2022-07-29T07:50:33.502Z,29.86
2022-07-29T07:53:03.256Z,30.04
2022-07-29T07:55:53.441Z,29.23
2022-07-29T07:58:23.137Z,30.22
2022-07-29T08:00:52.349Z,30.62
2022-07-29T08:03:21.307Z,31.11
2022-07-29T08:05:52.090Z,31.58
2022-07-29T08:08:21.135Z,31.16
2022-07-29T08:10:57.057Z,30.74
2022-07-29T08:13:31.139Z,31.19
2022-07-29T08:16:02.206Z,30.57
2022-07-29T08:18:32.995Z,31.11
2022-07-29T08:21:02.131Z,30.90
2022-07-29T08:23:45.488Z,29.80
2022-07-29T08:26:15.617Z,30.61
2022-07-29T08:28:47.320Z,31.11
2022-07-29T08:31:16.636Z,31.08
2022-07-29T08:33:45.910Z,31.39
2022-07-29T08:36:15.346Z,30.78
2022-07-29T08:38:44.262Z,29.87
2022-07-29T08:41:13.299Z,30.31
2022-07-29T08:43:42.912Z,32.02
2022-07-29T08:46:13.365Z,33.11
2022-07-29T08:48:43.543Z,32.62
2022-07-29T08:51:17.124Z,32.61
2022-07-29T08:53:48.478Z,32.83
2022-07-29T08:56:19.136Z,32.40
2022-07-29T08:58:52.043Z,32.55
2022-07-29T09:01:34.960Z,31.72
2022-07-29T09:04:08.228Z,31.94
2022-07-29T09:06:41.489Z,31.97
2022-07-29T09:09:10.876Z,32.49
2022-07-29T09:11:39.916Z,33.05
2022-07-29T09:14:09.383Z,32.14
2022-07-29T09:17:01.002Z,32.06
2022-07-29T09:19:32.638Z,33.03
2022-07-29T09:22:04.077Z,32.35
2022-07-29T09:24:41.842Z,32.46
2022-07-29T09:27:22.810Z,33.25
2022-07-29T09:29:59.718Z,32.19
2022-07-29T09:32:30.662Z,32.36
2022-07-29T09:35:20.211Z,32.78
2022-07-29T09:37:50.183Z,33.64
2022-07-29T09:40:21.590Z,32.53
2022-07-29T09:42:59.361Z,31.95
2022-07-29T09:45:31.089Z,33.32
2022-07-29T09:48:14.768Z,34.79
2022-07-29T09:50:45.898Z,35.04
2022-07-29T09:53:33.511Z,36.50
2022-07-29T09:56:02.843Z,36.26
2022-07-29T09:58:31.822Z,35.31
2022-07-29T10:01:00.921Z,33.86
2022-07-29T10:03:31.385Z,34.88
2022-07-29T10:06:11.867Z,32.47
2022-07-29T10:08:40.909Z,33.31
2022-07-29T10:11:14.515Z,34.32
2022-07-29T10:13:44.802Z,32.76
2022-07-29T10:16:15.010Z,33.17
2022-07-29T10:18:47.885Z,32.55
2022-07-29T10:21:35.197Z,32.91
2022-07-29T10:24:07.105Z,33.86
2022-07-29T10:26:45.762Z,34.30
2022-07-29T10:29:15.109Z,32.43
2022-07-29T10:31:52.307Z,33.07
2022-07-29T10:34:31.942Z,33.21
2022-07-29T10:37:10.858Z,34.24
2022-07-29T10:39:55.337Z,36.53
2022-07-29T10:42:34.057Z,37.56
2022-07-29T10:45:05.846Z,36.87
2022-07-29T10:47:35.520Z,36.86
2022-07-29T10:50:07.713Z,36.48
2022-07-29T10:52:57.678Z,35.84
2022-07-29T10:55:37.782Z,35.13
2022-07-29T10:58:18.954Z,35.66
2022-07-29T11:00:49.690Z,36.12
2022-07-29T11:03:50.391Z,37.28
2022-07-29T11:09:25.806Z,35.62
2022-07-29T11:12:04.589Z,33.61
2022-07-29T11:15:00.329Z,33.99
2022-07-29T11:17:46.997Z,34.26
2022-07-29T11:20:37.762Z,35.62
2022-07-29T11:23:27.516Z,36.71
2022-07-29T11:26:18.609Z,36.12
2022-07-29T11:29:00.955Z,34.95
2022-07-29T11:31:42.776Z,34.53
2022-07-29T11:34:23.232Z,36.13
2022-07-29T11:37:15.760Z,37.03
2022-07-29T11:39:50.948Z,35.68
2022-07-29T11:42:44.602Z,35.51
2022-07-29T11:45:44.461Z,34.44
2022-07-29T11:48:31.410Z,34.42
2022-07-29T11:50:58.288Z,36.98
2022-07-29T11:53:29.216Z,38.42
2022-07-29T11:56:03.776Z,37.95
2022-07-29T11:58:33.739Z,36.38
2022-07-29T12:01:04.932Z,35.53
2022-07-29T12:03:36.984Z,36.57
2022-07-29T12:06:15.053Z,37.73
2022-07-29T12:08:45.396Z,37.54
2022-07-29T12:11:21.633Z,37.84
2022-07-29T12:13:51.623Z,35.30
2022-07-29T12:16:26.080Z,35.57
2022-07-29T12:18:59.940Z,36.69
2022-07-29T12:21:29.483Z,38.14
2022-07-29T12:24:05.821Z,37.91
2022-07-29T12:26:51.999Z,37.44
2022-07-29T12:29:33.927Z,36.64
2022-07-29T12:32:14.921Z,36.84
2022-07-29T12:34:49.006Z,36.22
2022-07-29T12:37:18.278Z,36.73
2022-07-29T12:39:47.380Z,36.28
2022-07-29T12:42:19.184Z,35.83
2022-07-29T12:44:49.660Z,36.80
2022-07-29T12:47:20.285Z,36.21
2022-07-29T12:49:50.416Z,36.06
2022-07-29T12:52:26.615Z,35.69
2022-07-29T12:54:56.074Z,35.94
2022-07-29T12:57:26.952Z,36.67
2022-07-29T13:00:11.685Z,37.63
2022-07-29T13:02:42.479Z,37.43
2022-07-29T13:05:13.721Z,36.69
2022-07-29T13:07:54.964Z,37.27
2022-07-29T13:10:26.985Z,37.70
2022-07-29T13:13:09.210Z,36.47
2022-07-29T13:15:39.165Z,36.61
2022-07-29T13:18:28.772Z,35.82
2022-07-29T13:20:58.712Z,36.48
2022-07-29T13:23:27.713Z,37.29
2022-07-29T13:25:56.848Z,37.90
2022-07-29T13:28:27.319Z,38.26
2022-07-29T13:30:56.501Z,38.17
2022-07-29T13:33:25.490Z,37.02
2022-07-29T13:35:54.622Z,35.30
2022-07-29T13:38:23.648Z,34.85
2022-07-29T13:41:00.376Z,35.83
2022-07-29T13:43:30.752Z,34.95
2022-07-29T13:45:59.780Z,35.25
2022-07-29T13:48:28.799Z,36.27
2022-07-29T13:50:58.968Z,35.98
2022-07-29T13:53:28.951Z,35.64
2022-07-29T13:55:58.057Z,36.04
2022-07-29T13:58:26.970Z,36.64
2022-07-29T14:00:58.162Z,37.41
2022-07-29T14:03:27.357Z,38.58
2022-07-29T14:05:57.329Z,38.74
2022-07-29T14:08:26.362Z,38.40
2022-07-29T14:10:55.293Z,37.25
2022-07-29T14:13:26.363Z,35.39
2022-07-29T14:15:55.567Z,35.96
2022-07-29T14:18:25.927Z,35.93
2022-07-29T14:20:55.098Z,35.64
2022-07-29T14:23:24.262Z,35.66
2022-07-29T14:25:55.468Z,35.65
2022-07-29T14:28:24.987Z,36.33
2022-07-29T14:30:54.054Z,36.48
2022-07-29T14:33:22.982Z,36.67
2022-07-29T14:35:53.413Z,36.61
2022-07-29T14:38:22.369Z,36.06
2022-07-29T14:40:56.074Z,36.07
2022-07-29T14:43:25.043Z,35.75
2022-07-29T14:45:57.269Z,36.21
2022-07-29T14:48:30.533Z,36.65
2022-07-29T14:51:04.554Z,36.78
2022-07-29T14:53:34.438Z,36.98
2022-07-29T14:56:33.921Z,37.52
2022-07-29T14:58:52.514Z,37.59
2022-07-29T15:01:21.515Z,37.06
2022-07-29T15:03:51.545Z,37.46
2022-07-29T15:06:21.895Z,36.95
2022-07-29T15:08:50.919Z,36.90
2022-07-29T15:11:19.957Z,36.84
2022-07-29T15:13:49.270Z,37.12
2022-07-29T15:16:18.283Z,37.64
2022-07-29T15:18:47.280Z,37.97
2022-07-29T15:21:16.520Z,38.48
2022-07-29T15:23:47.213Z,38.33
2022-07-29T15:26:16.448Z,38.00
2022-07-29T15:28:45.396Z,37.21
2022-07-29T15:31:15.028Z,36.82
2022-07-29T15:33:43.984Z,36.53
2022-07-29T15:36:25.412Z,36.25
2022-07-29T15:39:03.921Z,35.92
2022-07-29T15:41:33.133Z,35.59
2022-07-29T15:44:02.097Z,35.53
2022-07-29T15:46:48.957Z,35.47
2022-07-29T15:49:17.980Z,35.27
2022-07-29T15:51:46.948Z,34.87
2022-07-29T15:54:17.710Z,34.85
2022-07-29T15:56:46.654Z,35.03
2022-07-29T15:59:22.488Z,34.94
2022-07-29T16:01:51.750Z,34.73
2022-07-29T16:04:21.213Z,34.72
2022-07-29T16:06:50.907Z,34.79
2022-07-29T16:09:21.677Z,34.70
2022-07-29T16:11:51.105Z,34.48
2022-07-29T16:14:20.352Z,34.79
2022-07-29T16:16:49.573Z,35.09
2022-07-29T16:19:18.559Z,35.37
2022-07-29T16:21:47.576Z,35.76
2022-07-29T16:24:16.715Z,35.84
2022-07-29T16:26:47.283Z,35.73
2022-07-29T16:29:18.222Z,35.66
2022-07-29T16:31:47.340Z,35.68
2022-07-29T16:34:16.351Z,35.61
2022-07-29T16:36:47.881Z,35.41
2022-07-29T16:39:17.118Z,35.52
2022-07-29T16:41:47.575Z,35.26
2022-07-29T16:44:16.550Z,35.06
2022-07-29T16:46:47.210Z,34.73
2022-07-29T16:49:19.445Z,34.75
2022-07-29T16:51:48.962Z,34.60
2022-07-29T16:54:18.360Z,34.63
2022-07-29T16:56:48.767Z,34.53
2022-07-29T16:59:17.815Z,34.35
2022-07-29T17:01:46.875Z,33.85
2022-07-29T17:04:16.330Z,33.80
2022-07-29T17:06:45.253Z,33.43
2022-07-29T17:09:16.099Z,33.46
2022-07-29T17:11:53.833Z,33.29
2022-07-29T17:14:27.364Z,33.29
2022-07-29T17:17:00.592Z,33.37
2022-07-29T17:19:32.295Z,33.13
2022-07-29T17:22:09.414Z,32.98
2022-07-29T17:24:41.212Z,32.89
2022-07-29T17:27:10.485Z,32.63
2022-07-29T17:29:40.939Z,32.49
2022-07-29T17:32:11.340Z,32.29
2022-07-29T17:34:41.683Z,32.10
2022-07-29T17:37:12.333Z,32.06
2022-07-29T17:39:42.570Z,31.67
2022-07-29T17:42:13.331Z,31.61
2022-07-29T17:44:43.751Z,31.47
2022-07-29T17:47:15.842Z,31.29
2022-07-29T17:49:45.566Z,31.08
2022-07-29T17:52:15.967Z,31.12
2022-07-29T17:54:44.925Z,30.95
2022-07-29T17:57:14.039Z,30.90
2022-07-29T17:59:44.481Z,30.79
2022-07-29T18:02:14.505Z,30.81
2022-07-29T18:04:43.683Z,30.74
2022-07-29T18:07:12.741Z,30.71
2022-07-29T18:09:41.797Z,30.66
2022-07-29T18:12:11.585Z,30.58
2022-07-29T18:14:40.660Z,30.53
2022-07-29T18:17:11.022Z,30.54
2022-07-29T18:19:40.106Z,30.58
2022-07-29T18:22:11.504Z,30.49
2022-07-29T18:24:40.585Z,30.10
2022-07-29T18:27:09.945Z,30.13
2022-07-29T18:29:38.975Z,30.13
2022-07-29T18:32:08.384Z,30.05
2022-07-29T18:34:38.693Z,29.99
2022-07-29T18:37:07.866Z,29.90
2022-07-29T18:39:36.860Z,29.80
2022-07-29T18:42:06.286Z,29.59
2022-07-29T18:44:41.585Z,29.63
2022-07-29T18:47:13.000Z,29.52
2022-07-29T18:49:43.729Z,29.44
2022-07-29T18:52:12.732Z,29.67
2022-07-29T18:54:41.778Z,29.71
2022-07-29T18:57:56.034Z,29.73
2022-07-29T18:59:59.969Z,29.47
2022-07-29T19:02:29.318Z,28.99
2022-07-29T19:05:00.115Z,29.03
2022-07-29T19:07:30.038Z,29.02
2022-07-29T19:09:58.938Z,29.06
2022-07-29T19:12:27.995Z,29.02
2022-07-29T19:14:56.989Z,28.90
2022-07-29T19:17:26.118Z,28.79
2022-07-29T19:19:55.111Z,28.77
2022-07-29T19:22:25.692Z,28.84
2022-07-29T19:24:54.822Z,28.70
2022-07-29T19:27:24.074Z,28.26
2022-07-29T19:29:55.803Z,28.25
2022-07-29T19:32:28.321Z,28.31
2022-07-29T19:35:14.490Z,28.35
2022-07-29T19:37:44.928Z,28.39
2022-07-29T19:40:14.124Z,28.28
2022-07-29T19:42:43.224Z,28.40
2022-07-29T19:45:13.053Z,28.00
2022-07-29T19:47:42.014Z,28.13
2022-07-29T19:50:11.756Z,28.11
2022-07-29T19:52:40.750Z,27.98
2022-07-29T19:55:12.099Z,27.74
2022-07-29T19:57:41.964Z,27.93
2022-07-29T20:00:12.285Z,27.74
2022-07-29T20:02:42.876Z,27.56
2022-07-29T20:05:12.796Z,27.43
2022-07-29T20:07:41.768Z,27.62
2022-07-29T20:10:12.775Z,27.75
2022-07-29T20:12:42.775Z,27.75
2022-07-29T20:15:16.327Z,27.73
2022-07-29T20:17:45.792Z,27.66
2022-07-29T20:20:14.719Z,27.60
2022-07-29T20:22:44.376Z,27.67
2022-07-29T20:25:15.508Z,27.67
2022-07-29T20:27:44.780Z,27.60
2022-07-29T20:30:14.512Z,27.74
2022-07-29T20:32:43.623Z,27.55
2022-07-29T20:35:13.493Z,27.58
2022-07-29T20:37:55.928Z,27.56
2022-07-29T20:40:27.646Z,27.52
2022-07-29T20:42:57.075Z,27.50
2022-07-29T20:45:26.321Z,27.41
2022-07-29T20:47:55.338Z,27.55
2022-07-29T20:50:24.886Z,27.65
2022-07-29T20:52:54.057Z,27.54
2022-07-29T20:55:23.041Z,27.23
2022-07-29T20:57:53.538Z,27.22
2022-07-29T21:00:22.615Z,27.19
2022-07-29T21:02:51.790Z,27.25
2022-07-29T21:05:21.031Z,27.15
2022-07-29T21:07:49.965Z,26.96
2022-07-29T21:10:19.075Z,27.04
2022-07-29T21:12:48.153Z,26.83
2022-07-29T21:15:20.828Z,26.86
2022-07-29T21:17:52.030Z,26.59
2022-07-29T21:20:21.209Z,26.47
2022-07-29T21:22:56.607Z,26.38
2022-07-29T21:25:27.041Z,26.42
2022-07-29T21:28:13.623Z,26.34
2022-07-29T21:30:44.050Z,26.40
2022-07-29T21:33:13.104Z,26.21
2022-07-29T21:36:06.270Z,26.24
2022-07-29T21:38:32.326Z,26.14
2022-07-29T21:41:01.324Z,26.23
2022-07-29T21:43:30.434Z,26.18
2022-07-29T21:46:01.240Z,26.35
2022-07-29T21:48:30.627Z,26.40
2022-07-29T21:50:59.796Z,26.45
2022-07-29T21:53:29.017Z,26.36
2022-07-29T21:55:59.879Z,26.31
2022-07-29T21:58:28.779Z,26.43
2022-07-29T22:00:57.999Z,26.37
2022-07-29T22:03:28.569Z,26.36
2022-07-29T22:05:57.569Z,26.47
2022-07-29T22:08:26.589Z,26.46
2022-07-29T22:10:55.595Z,26.47
2022-07-29T22:13:24.524Z,26.39
2022-07-29T22:15:53.643Z,26.27
2022-07-29T22:18:22.545Z,26.17
2022-07-29T22:20:52.937Z,26.10
2022-07-29T22:23:22.032Z,25.92
2022-07-29T22:25:51.076Z,25.96
2022-07-29T22:28:20.302Z,26.03
2022-07-29T22:30:49.378Z,26.07
2022-07-29T22:33:18.435Z,26.12
2022-07-29T22:35:49.028Z,25.96
2022-07-29T22:38:19.656Z,26.07
2022-07-29T22:40:50.656Z,26.19
2022-07-29T22:43:19.991Z,26.08
2022-07-29T22:45:49.047Z,26.28
2022-07-29T22:48:18.151Z,26.16
2022-07-29T22:50:47.082Z,26.04
2022-07-29T22:53:16.143Z,25.96
2022-07-29T22:55:46.621Z,25.94
2022-07-29T22:58:15.717Z,26.20
2022-07-29T23:00:44.630Z,26.20
2022-07-29T23:03:13.784Z,26.18
2022-07-29T23:05:42.790Z,26.24
2022-07-29T23:08:11.779Z,26.09
2022-07-29T23:10:40.907Z,26.24
2022-07-29T23:13:11.760Z,26.16
2022-07-29T23:15:40.830Z,26.10
2022-07-29T23:18:09.863Z,26.02
2022-07-29T23:20:38.897Z,25.87
2022-07-29T23:23:07.866Z,26.10
2022-07-29T23:25:37.117Z,25.99
2022-07-29T23:28:06.443Z,25.86
2022-07-29T23:30:42.270Z,25.73
2022-07-29T23:33:11.309Z,25.72
2022-07-29T23:35:40.251Z,25.65
2022-07-29T23:38:09.400Z,25.72
2022-07-29T23:40:38.440Z,25.88
2022-07-29T23:43:09.009Z,25.83
2022-07-29T23:45:42.669Z,25.81
2022-07-29T23:48:15.793Z,25.70
2022-07-29T23:50:44.847Z,25.80
2022-07-29T23:53:13.887Z,25.66
2022-07-29T23:55:42.976Z,25.52
2022-07-29T23:58:12.085Z,25.33
